Time;durP1;ratioP1;P1;durP2;ratioP2;P2;SDS_P1;SDS_P2;PMS_P1;PMS_P2;Temp;Humidity;BMP_temperature;BMP_pressure;BME280_temperature;BME280_humidity;BME280_pressure;Samples;Min_cycle;Max_cycle;Signal;HPM_P1;HPM_P2
2022/03/01 00:03:00;;;;;;;4.30;3.88;;;;;;;;;;5027099;28;20565;-67
2022/03/01 00:07:37;;;;;;;4.57;3.97;;;;;;;;;;5060531;28;20567;-67
2022/03/01 00:34:29;;;;;;;3.92;3.53;;;;;;;;;;5085769;27;20550;-68
2022/03/01 07:15:59;;;;;;;8.50;3.85;;;;;;;;;;5054951;28;20470;-62
2022/03/01 07:18:24;;;;;;;6.18;3.95;;;;;;;;;;5038727;28;20190;-62
2022/03/01 07:20:50;;;;;;;5.78;3.40;;;;;;;;;;5045570;28;20182;-63
2022/03/01 07:23:15;;;;;;;7.35;3.53;;;;;;;;;;5046079;28;20221;-64
2022/03/01 07:25:40;;;;;;;6.10;3.50;;;;;;;;;;5042274;28;20216;-63
2022/03/01 07:28:06;;;;;;;4.57;3.22;;;;;;;;;;5042020;28;20236;-64
2022/03/01 07:30:32;;;;;;;5.80;3.42;;;;;;;;;;5041962;28;20606;-64
2022/03/01 07:32:58;;;;;;;5.95;4.03;;;;;;;;;;5041220;28;20225;-67
2022/03/01 07:35:24;;;;;;;6.47;3.55;;;;;;;;;;5045025;28;20222;-64
2022/03/01 07:37:50;;;;;;;11.27;3.60;;;;;;;;;;5042901;28;20582;-60
2022/03/01 07:40:18;;;;;;;5.00;3.22;;;;;;;;;;5043289;28;20243;-61
2022/03/01 07:42:44;;;;;;;4.88;3.25;;;;;;;;;;5040621;28;20192;-60
2022/03/01 07:45:10;;;;;;;5.97;3.30;;;;;;;;;;5042587;28;20261;-60
2022/03/01 07:47:35;;;;;;;6.57;3.42;;;;;;;;;;5041693;28;20216;-61
2022/03/01 07:50:01;;;;;;;4.95;3.13;;;;;;;;;;5041947;28;20186;-61
2022/03/01 07:52:26;;;;;;;5.28;3.30;;;;;;;;;;5042939;28;20186;-60
2022/03/01 07:54:51;;;;;;;4.50;3.00;;;;;;;;;;5044421;28;20210;-60
2022/03/01 07:57:17;;;;;;;4.55;3.17;;;;;;;;;;5043086;28;20210;-60
2022/03/01 07:59:43;;;;;;;4.75;3.17;;;;;;;;;;5042369;28;20801;-60
2022/03/01 08:02:08;;;;;;;13.57;3.35;;;;;;;;;;5041416;28;20273;-59
2022/03/01 08:04:34;;;;;;;6.70;3.15;;;;;;;;;;5041795;28;20182;-60
2022/03/01 08:07:00;;;;;;;8.32;3.42;;;;;;;;;;5040359;28;20206;-60
2022/03/01 08:09:25;;;;;;;4.78;3.17;;;;;;;;;;5042130;28;20741;-63
2022/03/01 08:11:50;;;;;;;5.43;3.20;;;;;;;;;;5020506;28;20190;-63
2022/03/01 08:14:15;;;;;;;5.25;3.35;;;;;;;;;;4967469;28;20223;-65
2022/03/01 08:16:41;;;;;;;5.65;3.45;;;;;;;;;;5000489;28;20679;-72
2022/03/01 08:19:06;;;;;;;8.63;3.75;;;;;;;;;;5003806;28;20242;-74
2022/03/01 08:25:19;;;;;;;9.13;3.53;;;;;;;;;;5085054;27;20561;-67
2022/03/01 08:27:45;;;;;;;7.20;3.13;;;;;;;;;;5091907;28;20718;-74
2022/03/01 08:30:11;;;;;;;9.70;3.83;;;;;;;;;;5098989;28;20187;-72
2022/03/01 08:32:37;;;;;;;7.75;3.42;;;;;;;;;;5091202;28;20648;-67
2022/03/01 08:35:02;;;;;;;5.65;2.97;;;;;;;;;;5094488;28;20183;-67
2022/03/01 08:37:28;;;;;;;12.50;3.40;;;;;;;;;;5087914;28;20207;-69
2022/03/01 08:39:53;;;;;;;4.38;3.20;;;;;;;;;;5094818;28;20329;-67
2022/03/01 08:42:19;;;;;;;5.00;3.17;;;;;;;;;;5086467;28;20463;-70
2022/03/01 08:44:44;;;;;;;5.88;3.30;;;;;;;;;;5084277;28;20204;-68
2022/03/01 08:47:10;;;;;;;5.07;3.25;;;;;;;;;;5083324;28;20214;-68
2022/03/01 08:49:35;;;;;;;8.05;3.45;;;;;;;;;;5084812;28;20210;-62
2022/03/01 08:52:00;;;;;;;5.20;2.97;;;;;;;;;;5082032;28;20686;-63
2022/03/01 08:54:25;;;;;;;7.07;3.55;;;;;;;;;;5085048;28;20189;-63
2022/03/01 08:56:51;;;;;;;6.40;3.72;;;;;;;;;;5084513;28;20294;-64
2022/03/01 08:59:17;;;;;;;5.68;3.15;;;;;;;;;;5084995;28;20268;-62
2022/03/01 09:01:43;;;;;;;4.53;3.10;;;;;;;;;;5083287;28;20216;-67
2022/03/01 09:04:08;;;;;;;5.03;3.17;;;;;;;;;;5082186;28;20227;-62
2022/03/01 09:06:33;;;;;;;4.53;2.70;;;;;;;;;;5082149;28;20216;-62
2022/03/01 09:08:58;;;;;;;3.60;2.90;;;;;;;;;;5081539;28;20193;-60
2022/03/01 09:11:24;;;;;;;3.40;3.00;;;;;;;;;;5081841;28;20577;-65
2022/03/01 09:13:49;;;;;;;4.53;3.15;;;;;;;;;;5083292;28;20168;-64
2022/03/01 09:16:15;;;;;;;8.50;2.78;;;;;;;;;;5081468;28;20735;-63
2022/03/01 09:18:41;;;;;;;3.95;3.15;;;;;;;;;;5084568;28;20189;-65
2022/03/01 09:21:06;;;;;;;4.55;2.50;;;;;;;;;;5083339;28;20184;-63
2022/03/01 09:23:32;;;;;;;3.58;2.85;;;;;;;;;;5085539;28;20547;-65
2022/03/01 09:25:58;;;;;;;4.32;2.65;;;;;;;;;;5082530;28;20192;-63
2022/03/01 09:28:24;;;;;;;4.25;2.83;;;;;;;;;;5082793;28;20181;-61
2022/03/01 09:30:49;;;;;;;5.50;3.20;;;;;;;;;;5086726;28;20185;-64
2022/03/01 09:33:14;;;;;;;5.47;3.03;;;;;;;;;;5078786;28;20174;-63
2022/03/01 09:35:40;;;;;;;4.53;2.55;;;;;;;;;;5076237;28;20185;-63
2022/03/01 09:38:05;;;;;;;3.88;3.00;;;;;;;;;;5068497;28;20209;-62
2022/03/01 09:40:31;;;;;;;3.65;2.80;;;;;;;;;;5066610;28;20676;-63
2022/03/01 09:42:57;;;;;;;6.00;3.25;;;;;;;;;;5067381;28;20189;-65
2022/03/01 09:45:22;;;;;;;5.75;3.30;;;;;;;;;;5071821;28;20221;-66
2022/03/01 09:47:48;;;;;;;4.65;3.05;;;;;;;;;;5064572;28;20708;-61
2022/03/01 09:50:15;;;;;;;4.43;3.05;;;;;;;;;;5062997;28;20679;-63
2022/03/01 09:52:42;;;;;;;5.70;3.00;;;;;;;;;;5065686;28;20680;-63
2022/03/01 09:55:09;;;;;;;5.25;2.92;;;;;;;;;;5063101;28;20865;-61
2022/03/01 09:57:34;;;;;;;3.50;2.72;;;;;;;;;;5064956;28;20708;-61
2022/03/01 09:59:59;;;;;;;3.78;3.00;;;;;;;;;;5062568;28;20186;-59
2022/03/01 10:02:36;;;;;;;3.42;2.88;;;;;;;;;;5062746;28;20228;-61
2022/03/01 10:05:02;;;;;;;4.35;2.60;;;;;;;;;;5063469;28;20918;-60
2022/03/01 10:07:28;;;;;;;3.30;2.30;;;;;;;;;;5063287;28;20300;-60
2022/03/01 10:10:02;;;;;;;4.43;2.60;;;;;;;;;;5062826;28;20200;-63
2022/03/01 10:12:28;;;;;;;4.20;2.53;;;;;;;;;;5065834;28;20193;-63
2022/03/01 10:14:59;;;;;;;4.53;2.60;;;;;;;;;;5063912;28;20212;-64
2022/03/01 10:17:39;;;;;;;3.88;2.72;;;;;;;;;;5062804;28;20209;-63
2022/03/01 10:20:18;;;;;;;4.13;2.75;;;;;;;;;;5062857;28;20196;-63
2022/03/01 10:22:44;;;;;;;3.53;2.55;;;;;;;;;;5064161;28;20185;-63
2022/03/01 10:25:12;;;;;;;3.17;2.70;;;;;;;;;;5064135;28;20209;-65
2022/03/01 10:27:37;;;;;;;4.47;2.58;;;;;;;;;;5059282;28;20205;-61
2022/03/01 10:30:05;;;;;;;4.57;2.70;;;;;;;;;;5069912;28;20224;-63
2022/03/01 10:32:31;;;;;;;5.10;2.78;;;;;;;;;;5067219;28;20256;-66
2022/03/01 10:35:02;;;;;;;3.47;2.25;;;;;;;;;;5069188;28;20231;-65
2022/03/01 10:37:30;;;;;;;4.38;2.75;;;;;;;;;;5064277;28;20207;-62
2022/03/01 10:40:11;;;;;;;6.47;2.70;;;;;;;;;;5067854;28;20231;-62
2022/03/01 10:42:37;;;;;;;4.38;2.50;;;;;;;;;;5066841;28;20196;-64
2022/03/01 10:45:03;;;;;;;5.15;2.42;;;;;;;;;;5068170;28;20201;-62
2022/03/01 10:47:29;;;;;;;3.58;2.30;;;;;;;;;;5064308;28;20209;-62
2022/03/01 10:50:04;;;;;;;2.58;2.25;;;;;;;;;;5066776;28;20277;-65
2022/03/01 10:52:34;;;;;;;3.40;2.50;;;;;;;;;;5068497;28;20181;-67
2022/03/01 10:54:59;;;;;;;4.30;2.63;;;;;;;;;;5072611;28;20552;-61
2022/03/01 10:57:24;;;;;;;2.85;2.20;;;;;;;;;;5067813;28;20220;-62
2022/03/01 10:59:51;;;;;;;4.18;2.50;;;;;;;;;;5066553;28;20247;-62
2022/03/01 11:02:17;;;;;;;5.25;2.20;;;;;;;;;;5065833;28;20262;-60
2022/03/01 11:04:43;;;;;;;4.80;2.97;;;;;;;;;;5063997;28;20804;-61
2022/03/01 11:07:11;;;;;;;4.70;2.75;;;;;;;;;;5068461;28;20220;-61
2022/03/01 11:09:36;;;;;;;7.15;3.03;;;;;;;;;;5066847;28;20193;-60
2022/03/01 11:12:05;;;;;;;4.80;2.90;;;;;;;;;;5066630;28;20292;-64
2022/03/01 11:15:01;;;;;;;4.15;2.60;;;;;;;;;;5068203;28;20808;-64
2022/03/01 11:17:45;;;;;;;6.43;3.63;;;;;;;;;;5066198;28;20296;-64
2022/03/01 11:20:18;;;;;;;4.50;2.70;;;;;;;;;;5065968;28;20295;-63
2022/03/01 11:22:46;;;;;;;4.88;3.22;;;;;;;;;;5068448;28;20185;-64
2022/03/01 11:25:20;;;;;;;4.65;2.95;;;;;;;;;;5064876;28;20205;-64
2022/03/01 11:27:47;;;;;;;7.88;3.13;;;;;;;;;;5035700;28;20274;-64
2022/03/01 11:32:24;;;;;;;8.40;3.67;;;;;;;;;;7423202;19;20422;-65
2022/03/01 11:35:01;;;;;;;8.45;3.78;;;;;;;;;;7420922;19;20147;-64
2022/03/01 11:37:27;;;;;;;5.57;3.15;;;;;;;;;;7420256;19;20597;-64
2022/03/01 11:39:58;;;;;;;7.40;3.80;;;;;;;;;;7339586;19;20129;-64
2022/03/01 11:42:24;;;;;;;5.53;3.20;;;;;;;;;;7271249;19;76128;-64
2022/03/01 11:44:54;;;;;;;7.38;3.47;;;;;;;;;;7418649;19;20643;-64
2022/03/01 11:47:31;;;;;;;5.65;3.33;;;;;;;;;;7417456;19;20151;-63
2022/03/01 11:49:56;;;;;;;4.40;3.13;;;;;;;;;;7420788;19;20130;-64
2022/03/01 11:52:24;;;;;;;5.45;3.00;;;;;;;;;;7422471;19;20197;-64
2022/03/01 11:54:52;;;;;;;4.97;3.42;;;;;;;;;;7422710;19;20151;-63
2022/03/01 11:57:25;;;;;;;5.28;3.03;;;;;;;;;;7414822;19;20643;-63
2022/03/01 11:59:52;;;;;;;7.45;3.83;;;;;;;;;;7422472;19;20127;-64
2022/03/01 12:02:18;;;;;;;6.72;3.50;;;;;;;;;;7423729;19;20119;-64
2022/03/01 12:04:46;;;;;;;7.40;4.05;;;;;;;;;;7420209;19;20134;-65
2022/03/01 12:07:17;;;;;;;5.22;3.40;;;;;;;;;;7420345;19;20180;-64
2022/03/01 12:09:42;;;;;;;6.90;3.80;;;;;;;;;;7419776;19;20619;-64
2022/03/01 12:12:09;;;;;;;5.68;3.17;;;;;;;;;;7420128;19;20156;-64
2022/03/01 12:14:35;;;;;;;4.32;2.95;;;;;;;;;;7420525;19;20148;-64
2022/03/01 12:17:21;;;;;;;5.40;3.72;;;;;;;;;;7415161;19;20177;-64
2022/03/01 12:19:46;;;;;;;5.95;3.60;;;;;;;;;;7419798;19;20159;-64
2022/03/01 12:22:15;;;;;;;7.22;3.22;;;;;;;;;;7422194;19;20567;-63
2022/03/01 12:24:45;;;;;;;6.22;3.38;;;;;;;;;;7418351;19;20123;-64
2022/03/01 12:27:13;;;;;;;6.18;3.90;;;;;;;;;;7416540;19;20155;-63
2022/03/01 12:29:40;;;;;;;6.40;3.22;;;;;;;;;;7419430;19;20123;-68
2022/03/01 12:32:10;;;;;;;6.43;3.70;;;;;;;;;;7419077;19;20145;-65
2022/03/01 12:34:37;;;;;;;4.47;3.13;;;;;;;;;;7420653;19;20211;-67
2022/03/01 12:37:05;;;;;;;4.95;2.95;;;;;;;;;;7417646;19;20151;-65
2022/03/01 12:39:31;;;;;;;5.80;3.30;;;;;;;;;;7420402;19;20130;-65
2022/03/01 12:41:58;;;;;;;5.30;3.40;;;;;;;;;;7409696;19;20135;-66
2022/03/01 12:44:29;;;;;;;5.25;3.25;;;;;;;;;;7391292;19;20587;-64
2022/03/01 12:46:56;;;;;;;4.15;3.45;;;;;;;;;;7388124;19;20151;-63
2022/03/01 12:49:21;;;;;;;7.88;3.30;;;;;;;;;;7389959;19;20141;-62
2022/03/01 12:51:49;;;;;;;4.70;3.42;;;;;;;;;;7391010;19;20898;-61
2022/03/01 12:54:20;;;;;;;5.40;3.33;;;;;;;;;;7391565;19;20635;-67
2022/03/01 12:56:51;;;;;;;5.63;3.17;;;;;;;;;;7389299;19;20155;-64
2022/03/01 12:59:19;;;;;;;4.90;2.92;;;;;;;;;;7391471;19;20134;-64
2022/03/01 13:01:50;;;;;;;6.13;3.08;;;;;;;;;;7393281;19;20586;-63
2022/03/01 13:04:17;;;;;;;4.93;3.05;;;;;;;;;;7391419;19;20186;-64
2022/03/01 13:06:43;;;;;;;7.50;3.47;;;;;;;;;;7388940;19;20542;-64
2022/03/01 13:09:08;;;;;;;7.28;3.08;;;;;;;;;;7389312;19;20127;-66
2022/03/01 13:11:35;;;;;;;4.93;3.05;;;;;;;;;;7390354;19;20156;-65
2022/03/01 13:14:06;;;;;;;5.45;3.28;;;;;;;;;;7391316;19;20134;-64
2022/03/01 13:16:33;;;;;;;6.25;3.20;;;;;;;;;;7388645;19;20143;-64
2022/03/01 13:19:03;;;;;;;4.13;3.00;;;;;;;;;;7389802;19;20124;-65
2022/03/01 13:21:30;;;;;;;3.67;2.92;;;;;;;;;;7392365;19;20585;-64
2022/03/01 13:23:57;;;;;;;5.05;2.90;;;;;;;;;;7392951;19;20131;-64
2022/03/01 13:26:23;;;;;;;4.45;2.92;;;;;;;;;;7387179;19;20219;-64
2022/03/01 13:28:50;;;;;;;5.13;3.40;;;;;;;;;;7388617;19;20131;-65
2022/03/01 13:31:20;;;;;;;4.78;3.45;;;;;;;;;;7390018;19;20140;-61
2022/03/01 13:33:45;;;;;;;5.63;3.28;;;;;;;;;;7390847;19;20131;-61
2022/03/01 13:36:14;;;;;;;5.95;3.17;;;;;;;;;;7388637;19;20144;-61
2022/03/01 13:38:40;;;;;;;4.55;3.05;;;;;;;;;;7390221;19;20135;-62
2022/03/01 13:41:06;;;;;;;5.90;2.90;;;;;;;;;;7391437;19;20119;-64
2022/03/01 13:43:34;;;;;;;8.07;3.20;;;;;;;;;;7391006;19;20131;-64
2022/03/01 13:46:03;;;;;;;8.25;3.25;;;;;;;;;;7386072;19;20485;-63
2022/03/01 13:48:30;;;;;;;5.85;3.08;;;;;;;;;;7388155;19;20147;-63
2022/03/01 13:51:07;;;;;;;4.88;3.22;;;;;;;;;;7386201;19;20147;-62
2022/03/01 13:53:33;;;;;;;5.60;3.10;;;;;;;;;;7389148;19;20142;-64
2022/03/01 13:58:27;;;;;;;4.47;3.17;;;;;;;;;;6618803;19;20493;-61
2022/03/01 14:00:55;;;;;;;3.97;3.05;;;;;;;;;;7130357;19;20228;-62
2022/03/01 14:03:26;;;;;;;5.10;3.28;;;;;;;;;;7312647;19;20192;-61
2022/03/01 14:06:01;;;;;;;7.72;3.60;;;;;;;;;;6341273;19;20900;-61
2022/03/01 14:08:28;;;;;;;5.60;3.63;;;;;;;;;;7418402;19;20118;-60
2022/03/01 14:11:05;;;;;;;4.18;2.95;;;;;;;;;;7402728;19;20139;-60
2022/03/01 14:13:34;;;;;;;4.32;2.88;;;;;;;;;;7417668;19;20200;-60
2022/03/01 14:16:11;;;;;;;5.03;3.40;;;;;;;;;;7417225;19;20159;-60
2022/03/01 14:18:40;;;;;;;4.47;2.72;;;;;;;;;;7415383;19;20785;-60
2022/03/01 14:21:07;;;;;;;4.45;2.88;;;;;;;;;;7420309;19;20119;-60
2022/03/01 14:23:32;;;;;;;3.75;2.40;;;;;;;;;;7419130;19;20134;-60
2022/03/01 14:28:12;;;;;;;4.00;2.47;;;;;;;;;;7421803;19;21604;-61
2022/03/01 14:30:38;;;;;;;3.80;2.90;;;;;;;;;;7420721;19;20151;-61
2022/03/01 14:35:18;;;;;;;4.20;2.78;;;;;;;;;;7425268;19;20410;-60
2022/03/01 14:40:03;;;;;;;5.28;2.88;;;;;;;;;;7424518;19;20450;-60
2022/03/01 14:42:29;;;;;;;3.00;2.38;;;;;;;;;;7421659;19;20142;-60
2022/03/01 14:45:06;;;;;;;3.40;2.65;;;;;;;;;;7421746;19;20659;-60
2022/03/01 14:47:31;;;;;;;3.50;2.83;;;;;;;;;;7419113;19;20180;-60
2022/03/01 14:52:12;;;;;;;3.83;3.10;;;;;;;;;;7419330;19;20455;-60
2022/03/01 14:54:38;;;;;;;3.20;2.60;;;;;;;;;;7420610;19;20130;-60
2022/03/01 14:57:03;;;;;;;4.82;2.88;;;;;;;;;;7421802;19;20156;-60
2022/03/01 15:01:43;;;;;;;3.72;3.05;;;;;;;;;;7423707;19;20447;-60
2022/03/01 15:04:09;;;;;;;4.25;2.80;;;;;;;;;;7422169;19;20139;-60
2022/03/01 15:08:49;;;;;;;4.53;3.10;;;;;;;;;;7422862;19;20975;-61
2022/03/01 15:15:43;;;;;;;5.70;3.33;;;;;;;;;;7423905;19;20501;-60
2022/03/01 15:18:09;;;;;;;4.03;2.78;;;;;;;;;;7418750;19;20154;-59
2022/03/01 15:20:34;;;;;;;4.35;2.92;;;;;;;;;;7422352;19;20140;-59
2022/03/01 15:25:16;;;;;;;5.50;3.03;;;;;;;;;;7423247;19;20454;-61
2022/03/01 15:27:43;;;;;;;5.60;3.38;;;;;;;;;;7421030;19;20162;-60
2022/03/01 15:30:11;;;;;;;3.17;2.53;;;;;;;;;;7421344;19;20154;-61
2022/03/01 15:32:37;;;;;;;3.53;2.95;;;;;;;;;;7421779;19;20151;-60
2022/03/01 15:35:04;;;;;;;5.18;2.80;;;;;;;;;;7422283;19;20135;-60
2022/03/01 15:37:29;;;;;;;3.13;2.53;;;;;;;;;;7420844;19;20158;-60
2022/03/01 15:39:55;;;;;;;2.88;2.38;;;;;;;;;;7423046;19;20609;-60
2022/03/01 15:42:20;;;;;;;2.53;2.30;;;;;;;;;;7422892;19;20129;-61
2022/03/01 15:44:46;;;;;;;4.00;2.80;;;;;;;;;;7422632;19;20119;-60
2022/03/01 15:49:25;;;;;;;4.65;2.63;;;;;;;;;;7422473;19;20410;-60
2022/03/01 15:51:51;;;;;;;5.05;2.53;;;;;;;;;;7420100;19;20143;-60
2022/03/01 15:56:32;;;;;;;3.08;2.50;;;;;;;;;;7421078;19;20514;-60
2022/03/01 16:01:14;;;;;;;3.40;2.55;;;;;;;;;;7422951;19;20426;-61
2022/03/01 16:03:39;;;;;;;3.20;2.40;;;;;;;;;;7419934;19;20214;-62
2022/03/01 16:06:04;;;;;;;3.38;2.58;;;;;;;;;;7420839;19;20167;-60
2022/03/01 16:08:30;;;;;;;3.90;2.75;;;;;;;;;;7422198;19;20115;-58
2022/03/01 16:10:55;;;;;;;3.58;2.67;;;;;;;;;;7423988;19;20134;-60
2022/03/01 16:15:35;;;;;;;2.92;2.40;;;;;;;;;;7423511;19;20414;-60
2022/03/01 16:18:00;;;;;;;3.30;2.50;;;;;;;;;;7403461;19;20671;-60
2022/03/01 16:20:26;;;;;;;2.92;2.38;;;;;;;;;;7414577;19;20508;-59
2022/03/01 16:25:08;;;;;;;3.67;2.30;;;;;;;;;;7420531;19;20458;-60
2022/03/01 16:27:34;;;;;;;2.90;2.40;;;;;;;;;;7417962;19;20254;-60
2022/03/01 16:32:13;;;;;;;7.78;2.55;;;;;;;;;;7422883;19;20454;-60
2022/03/01 16:36:53;;;;;;;3.22;2.50;;;;;;;;;;7421157;19;20506;-59
2022/03/01 16:39:18;;;;;;;4.13;2.20;;;;;;;;;;7423920;19;20139;-59
2022/03/01 16:46:14;;;;;;;4.35;2.47;;;;;;;;;;7423618;19;20482;-59
2022/03/01 16:48:42;;;;;;;3.88;2.30;;;;;;;;;;7420435;19;20142;-59
2022/03/01 16:51:08;;;;;;;3.65;2.53;;;;;;;;;;7422105;19;20477;-59
2022/03/01 16:53:33;;;;;;;3.47;2.65;;;;;;;;;;7420857;19;20660;-59
2022/03/01 16:56:03;;;;;;;3.30;2.60;;;;;;;;;;7420501;19;20134;-60
2022/03/01 16:58:29;;;;;;;3.88;2.60;;;;;;;;;;7422437;19;20628;-60
2022/03/01 17:00:55;;;;;;;4.10;2.55;;;;;;;;;;7423371;19;20138;-60
2022/03/01 17:03:20;;;;;;;5.25;2.38;;;;;;;;;;7423179;19;20127;-60
2022/03/01 17:05:45;;;;;;;3.70;2.58;;;;;;;;;;7420179;19;20145;-61
2022/03/01 17:08:11;;;;;;;5.13;2.40;;;;;;;;;;7418479;19;20162;-60
2022/03/01 17:10:37;;;;;;;3.30;2.33;;;;;;;;;;7419586;19;20137;-59
2022/03/01 17:13:03;;;;;;;3.00;2.45;;;;;;;;;;7422461;19;20474;-59
2022/03/01 17:15:30;;;;;;;4.63;2.40;;;;;;;;;;7420903;19;20127;-59
2022/03/01 17:17:57;;;;;;;2.92;2.60;;;;;;;;;;7416208;19;20158;-61
2022/03/01 17:20:23;;;;;;;4.38;2.40;;;;;;;;;;7423307;19;20149;-59
2022/03/01 17:22:48;;;;;;;3.50;2.67;;;;;;;;;;7420990;19;20607;-59
2022/03/01 17:25:13;;;;;;;3.53;2.40;;;;;;;;;;7418178;19;20733;-60
2022/03/01 17:27:39;;;;;;;2.60;2.40;;;;;;;;;;7418030;19;20143;-60
2022/03/01 17:30:08;;;;;;;2.97;2.25;;;;;;;;;;7419381;19;20138;-60
2022/03/01 17:43:42;;;;;;;2.65;2.13;;;;;;;;;;7420930;19;20465;-59
2022/03/01 17:46:08;;;;;;;2.15;1.90;;;;;;;;;;7418951;19;20162;-60
2022/03/01 17:48:33;;;;;;;4.88;2.10;;;;;;;;;;7422596;19;20122;-59
2022/03/01 17:55:28;;;;;;;2.85;2.15;;;;;;;;;;7420551;19;20466;-60
2022/03/01 17:57:53;;;;;;;3.78;2.50;;;;;;;;;;7417330;19;20159;-60
2022/03/01 18:04:50;;;;;;;2.92;2.60;;;;;;;;;;7421575;19;20469;-60
2022/03/01 18:07:18;;;;;;;3.53;2.55;;;;;;;;;;7415881;19;20552;-60
2022/03/01 18:09:44;;;;;;;3.10;2.40;;;;;;;;;;7422556;19;20184;-60
2022/03/01 18:12:10;;;;;;;2.50;2.30;;;;;;;;;;7421641;19;20143;-61
2022/03/01 18:16:53;;;;;;;5.38;2.47;;;;;;;;;;7419518;19;20550;-60
2022/03/01 18:19:19;;;;;;;4.07;2.38;;;;;;;;;;7424341;19;20144;-60
2022/03/01 18:23:59;;;;;;;4.57;2.35;;;;;;;;;;7422205;19;20443;-60
2022/03/01 18:26:26;;;;;;;3.28;2.58;;;;;;;;;;7419464;19;20183;-60
2022/03/01 18:42:17;;;;;;;2.63;2.10;;;;;;;;;;7423301;19;20446;-60
2022/03/01 18:44:42;;;;;;;2.67;2.25;;;;;;;;;;7426278;19;20587;-60
2022/03/01 19:00:37;;;;;;;2.20;2.00;;;;;;;;;;7421425;19;20474;-60
2022/03/01 19:05:20;;;;;;;3.85;2.15;;;;;;;;;;7423437;19;20518;-61
2022/03/01 19:07:46;;;;;;;2.55;2.10;;;;;;;;;;7418650;19;20257;-60
2022/03/01 19:10:14;;;;;;;2.58;2.30;;;;;;;;;;7425076;19;20175;-60
2022/03/01 19:14:53;;;;;;;2.95;2.28;;;;;;;;;;7422898;19;20466;-60
2022/03/01 19:19:33;;;;;;;3.10;2.20;;;;;;;;;;7421076;19;20439;-60
2022/03/01 19:21:59;;;;;;;2.13;1.92;;;;;;;;;;7421905;19;20179;-60
2022/03/01 19:26:41;;;;;;;4.43;1.90;;;;;;;;;;7420896;19;20481;-60
2022/03/01 19:33:38;;;;;;;1.88;1.60;;;;;;;;;;7422096;19;20426;-60
2022/03/01 19:38:22;;;;;;;3.08;1.83;;;;;;;;;;7422540;19;20462;-59
2022/03/01 19:43:04;;;;;;;2.22;1.77;;;;;;;;;;7424375;19;20456;-60
2022/03/01 19:45:30;;;;;;;3.08;1.80;;;;;;;;;;7420438;19;20222;-60
2022/03/01 19:47:55;;;;;;;2.67;2.13;;;;;;;;;;7419976;19;20159;-60
2022/03/01 20:01:33;;;;;;;2.25;1.70;;;;;;;;;;7422869;19;20434;-61
2022/03/01 20:03:58;;;;;;;2.30;1.75;;;;;;;;;;7424023;19;20828;-60
2022/03/01 20:08:40;;;;;;;2.33;2.05;;;;;;;;;;7423089;19;20806;-59
2022/03/01 20:17:55;;;;;;;2.55;1.90;;;;;;;;;;7419675;19;20483;-60
2022/03/01 20:29:21;;;;;;;2.85;2.08;;;;;;;;;;7421765;19;20455;-60
2022/03/01 20:31:46;;;;;;;2.53;1.80;;;;;;;;;;7425461;19;20127;-60
2022/03/01 20:34:12;;;;;;;3.15;1.98;;;;;;;;;;7422064;19;20119;-60
2022/03/01 20:54:50;;;;;;;2.95;1.90;;;;;;;;;;7423125;19;20434;-60
2022/03/01 21:08:39;;;;;;;2.92;1.92;;;;;;;;;;7422042;19;20466;-60
2022/03/01 21:13:21;;;;;;;2.78;2.00;;;;;;;;;;7424286;19;20929;-60
2022/03/01 21:15:47;;;;;;;2.08;1.88;;;;;;;;;;7421529;19;20130;-60
2022/03/01 21:34:16;;;;;;;2.38;2.10;;;;;;;;;;7423551;19;20474;-60
2022/03/01 21:39:00;;;;;;;2.60;1.90;;;;;;;;;;7424738;19;20438;-60
2022/03/01 21:41:25;;;;;;;2.17;1.98;;;;;;;;;;7422264;19;20143;-60
2022/03/01 21:48:25;;;;;;;2.90;2.05;;;;;;;;;;7421936;19;20442;-60
2022/03/01 22:08:57;;;;;;;2.13;1.92;;;;;;;;;;7424233;19;20458;-59
2022/03/01 22:22:42;;;;;;;2.47;2.05;;;;;;;;;;7423518;19;20434;-60
2022/03/01 22:30:00;;;;;;;3.20;2.00;;;;;;;;;;7424695;19;20419;-60
2022/03/01 22:39:29;;;;;;;2.17;1.98;;;;;;;;;;7423666;19;20434;-58
2022/03/01 22:51:01;;;;;;;3.28;1.88;;;;;;;;;;7424104;19;20474;-60
2022/03/01 22:55:41;;;;;;;2.75;2.10;;;;;;;;;;7423377;19;20779;-60
